createdAt,value
2019-04-29T00:00:11.207Z,18.43
2019-04-29T00:02:43.717Z,15.17
2019-04-29T00:05:15.076Z,13.97
2019-04-29T00:07:46.022Z,17.67
2019-04-29T00:10:21.758Z,14.30
2019-04-29T00:12:53.198Z,17.47
2019-04-29T00:15:43.252Z,15.13
2019-04-29T00:18:22.150Z,14.10
2019-04-29T00:20:53.905Z,18.57
2019-04-29T00:23:24.894Z,16.17
2019-04-29T00:25:56.416Z,17.23
2019-04-29T00:28:27.412Z,17.73
2019-04-29T00:30:58.505Z,16.30
2019-04-29T00:33:29.596Z,19.20
2019-04-29T00:36:00.718Z,16.10
2019-04-29T00:38:57.087Z,14.60
2019-04-29T00:41:41.454Z,16.40
2019-04-29T00:44:14.604Z,15.80
2019-04-29T00:46:46.032Z,13.63
2019-04-29T00:49:17.827Z,15.10
2019-04-29T00:51:49.150Z,16.97
2019-04-29T00:54:37.966Z,16.67
2019-04-29T00:57:08.949Z,15.53
2019-04-29T00:59:40.275Z,14.87
2019-04-29T01:02:11.337Z,15.90
2019-04-29T01:04:42.338Z,14.10
2019-04-29T01:07:13.480Z,15.80
2019-04-29T01:09:44.518Z,14.90
2019-04-29T01:12:15.517Z,14.67
2019-04-29T01:14:46.545Z,14.47
2019-04-29T01:17:17.598Z,14.50
2019-04-29T01:19:48.666Z,15.00
2019-04-29T01:22:19.615Z,15.80
2019-04-29T01:24:50.884Z,14.97
2019-04-29T01:27:29.701Z,16.73
2019-04-29T01:30:01.155Z,15.70
2019-04-29T01:32:32.613Z,16.63
2019-04-29T01:35:04.403Z,15.83
2019-04-29T01:37:42.790Z,15.03
2019-04-29T01:40:31.427Z,16.97
2019-04-29T01:43:02.483Z,17.97
2019-04-29T01:45:34.531Z,17.20
2019-04-29T01:48:06.648Z,18.70
2019-04-29T01:50:37.658Z,16.83
2019-04-29T01:53:08.691Z,17.63
2019-04-29T01:55:39.685Z,17.77
2019-04-29T01:58:10.619Z,15.40
2019-04-29T02:00:41.937Z,17.80
2019-04-29T02:03:13.234Z,15.93
2019-04-29T02:05:44.336Z,16.37
2019-04-29T02:08:15.352Z,16.70
2019-04-29T02:10:46.700Z,16.77
2019-04-29T02:13:17.715Z,17.20
2019-04-29T02:15:49.803Z,18.23
2019-04-29T02:18:21.052Z,17.27
2019-04-29T02:20:52.153Z,17.50
2019-04-29T02:23:35.254Z,16.00
2019-04-29T02:26:07.383Z,17.27
2019-04-29T02:28:38.361Z,16.17
2019-04-29T02:31:27.022Z,16.30
2019-04-29T02:33:58.154Z,17.73
2019-04-29T02:36:30.113Z,15.30
2019-04-29T02:39:20.727Z,19.33
2019-04-29T02:42:20.596Z,17.07
2019-04-29T02:44:52.534Z,15.00
2019-04-29T02:47:23.928Z,16.50
2019-04-29T02:49:54.982Z,17.40
2019-04-29T02:52:25.935Z,16.77
2019-04-29T02:54:59.854Z,15.23
2019-04-29T02:57:55.874Z,15.30
2019-04-29T03:00:46.190Z,14.73
2019-04-29T03:03:23.682Z,14.33
2019-04-29T03:05:58.790Z,15.27
2019-04-29T03:08:29.775Z,13.53
2019-04-29T03:11:00.843Z,15.87
2019-04-29T03:13:31.888Z,13.47
2019-04-29T03:16:03.560Z,14.27
2019-04-29T03:18:36.498Z,13.37
2019-04-29T03:21:18.884Z,13.73
2019-04-29T03:23:50.008Z,13.73
2019-04-29T03:26:21.008Z,13.10
2019-04-29T03:28:53.050Z,14.67
2019-04-29T03:31:24.098Z,14.13
2019-04-29T03:33:55.896Z,14.37
2019-04-29T03:36:26.898Z,15.57
2019-04-29T03:38:58.146Z,14.60
2019-04-29T03:41:29.202Z,17.70
2019-04-29T03:44:00.228Z,16.93
2019-04-29T03:46:31.307Z,17.20
2019-04-29T03:49:02.205Z,16.20
2019-04-29T03:51:33.286Z,17.93
2019-04-29T03:54:04.300Z,16.23
2019-04-29T03:56:35.382Z,16.10
2019-04-29T03:59:06.386Z,14.53
2019-04-29T04:01:43.086Z,14.67
2019-04-29T04:04:34.420Z,14.57
2019-04-29T04:07:23.110Z,15.07
2019-04-29T04:09:54.161Z,16.80
2019-04-29T04:12:25.485Z,14.80
2019-04-29T04:14:56.595Z,15.80
2019-04-29T04:17:56.120Z,14.70
2019-04-29T04:20:27.551Z,15.00
2019-04-29T04:22:59.592Z,14.53
2019-04-29T04:25:31.048Z,16.90
2019-04-29T04:28:02.075Z,17.50
2019-04-29T04:30:33.109Z,17.23
2019-04-29T04:33:04.033Z,17.00
2019-04-29T04:35:35.277Z,15.80
2019-04-29T04:38:06.272Z,15.43
2019-04-29T04:40:41.645Z,16.27
2019-04-29T04:43:12.658Z,15.63
2019-04-29T04:45:43.743Z,16.10
2019-04-29T04:48:15.813Z,16.37
2019-04-29T04:50:46.860Z,14.50
2019-04-29T04:53:18.260Z,15.37
2019-04-29T04:55:51.722Z,15.33
2019-04-29T04:58:22.833Z,17.07
2019-04-29T05:00:54.206Z,14.33
2019-04-29T05:03:25.278Z,15.73
2019-04-29T05:05:56.588Z,16.43
2019-04-29T05:08:27.932Z,15.47
2019-04-29T05:10:58.983Z,16.23
2019-04-29T05:13:30.000Z,14.57
2019-04-29T05:16:12.453Z,14.37
2019-04-29T05:18:43.745Z,16.20
2019-04-29T05:21:14.661Z,16.23
2019-04-29T05:23:45.673Z,19.63
2019-04-29T05:26:16.954Z,25.90
2019-04-29T05:28:47.862Z,28.73
2019-04-29T05:31:18.787Z,51.13
2019-04-29T05:33:55.925Z,74.80
2019-04-29T05:36:39.743Z,42.87
2019-04-29T05:39:23.163Z,163.87
2019-04-29T05:41:54.638Z,54.17
2019-04-29T05:44:43.471Z,70.47
2019-04-29T05:47:20.610Z,90.23
2019-04-29T05:50:11.843Z,119.63
2019-04-29T05:52:51.040Z,123.37
2019-04-29T05:55:22.007Z,47.53
2019-04-29T05:57:55.874Z,90.50
2019-04-29T06:00:27.355Z,34.87
2019-04-29T06:02:58.442Z,33.03
2019-04-29T06:05:31.735Z,57.20
2019-04-29T06:08:04.539Z,88.87
2019-04-29T06:10:35.834Z,118.93
2019-04-29T06:13:07.116Z,118.50
2019-04-29T06:15:38.069Z,91.10
2019-04-29T06:18:09.350Z,71.83
2019-04-29T06:20:40.669Z,61.47
2019-04-29T06:23:11.777Z,66.37
2019-04-29T06:25:42.833Z,35.00
2019-04-29T06:28:14.181Z,56.73
2019-04-29T06:30:50.234Z,40.53
2019-04-29T06:33:19.919Z,46.17
2019-04-29T06:35:51.031Z,51.93
2019-04-29T06:38:22.059Z,38.77
2019-04-29T06:40:54.733Z,32.07
2019-04-29T06:43:28.790Z,38.67
2019-04-29T06:45:58.497Z,40.60
2019-04-29T06:48:29.455Z,39.10
2019-04-29T06:51:01.743Z,38.70
2019-04-29T06:53:33.203Z,39.30
2019-04-29T06:56:09.277Z,40.60
2019-04-29T06:58:40.932Z,42.90
2019-04-29T07:01:11.947Z,42.70
2019-04-29T07:03:47.110Z,36.23
2019-04-29T07:06:18.082Z,36.00
2019-04-29T07:08:49.029Z,35.67
2019-04-29T07:11:20.349Z,37.27
2019-04-29T07:13:53.416Z,37.47
2019-04-29T07:16:31.950Z,35.67
2019-04-29T07:19:01.744Z,35.53
2019-04-29T07:21:34.846Z,38.08
2019-04-29T07:24:06.202Z,36.93
2019-04-29T07:26:37.544Z,36.37
2019-04-29T07:29:08.520Z,36.47
2019-04-29T07:31:39.797Z,34.07
2019-04-29T07:34:10.762Z,36.33
2019-04-29T07:36:42.108Z,33.27
2019-04-29T07:39:13.523Z,31.07
2019-04-29T07:41:44.980Z,29.30
2019-04-29T07:44:18.408Z,29.17
2019-04-29T07:46:56.631Z,32.07
2019-04-29T07:49:24.738Z,32.53
2019-04-29T07:51:55.800Z,32.67
2019-04-29T07:54:27.091Z,30.27
2019-04-29T07:57:01.578Z,30.97
2019-04-29T07:59:33.904Z,29.33
2019-04-29T08:02:05.665Z,30.73
2019-04-29T08:04:36.645Z,24.27
2019-04-29T08:07:07.680Z,24.90
2019-04-29T08:09:44.278Z,24.50
2019-04-29T08:12:14.426Z,23.70
2019-04-29T08:14:48.015Z,25.10
2019-04-29T08:17:19.124Z,22.53
2019-04-29T08:19:50.073Z,23.87
2019-04-29T08:22:22.856Z,24.57
2019-04-29T08:24:55.011Z,25.23
2019-04-29T08:27:39.268Z,20.77
2019-04-29T08:30:06.754Z,21.30
2019-04-29T08:32:38.614Z,19.17
2019-04-29T08:35:10.451Z,21.50
2019-04-29T08:37:41.550Z,21.03
2019-04-29T08:40:16.503Z,21.20
2019-04-29T08:42:52.550Z,22.80
2019-04-29T08:45:39.046Z,22.73
2019-04-29T08:48:10.174Z,20.73
2019-04-29T08:50:41.573Z,22.97
2019-04-29T08:53:12.937Z,21.07
2019-04-29T08:55:43.959Z,20.40
2019-04-29T08:58:14.905Z,18.90
2019-04-29T09:00:45.968Z,29.87
2019-04-29T09:03:18.895Z,19.23
2019-04-29T09:06:04.128Z,19.20
2019-04-29T09:08:23.118Z,16.57
2019-04-29T09:10:54.093Z,14.77
2019-04-29T09:13:25.150Z,14.57
2019-04-29T09:15:56.627Z,15.33
2019-04-29T09:18:27.714Z,19.57
2019-04-29T09:20:58.626Z,17.07
2019-04-29T09:23:31.779Z,16.03
2019-04-29T09:26:24.098Z,18.17
2019-04-29T09:28:53.958Z,17.40
2019-04-29T09:31:24.964Z,17.83
2019-04-29T09:34:06.331Z,16.23
2019-04-29T09:36:29.067Z,15.07
2019-04-29T09:39:00.219Z,16.53
2019-04-29T09:41:38.625Z,17.07
2019-04-29T09:44:40.326Z,16.13
2019-04-29T09:47:10.486Z,11.10
2019-04-29T09:49:41.555Z,10.30
2019-04-29T09:52:12.672Z,12.67
2019-04-29T09:54:43.580Z,11.87
2019-04-29T09:57:14.585Z,12.63
2019-04-29T09:59:50.598Z,14.33
2019-04-29T10:02:31.199Z,12.23
2019-04-29T10:05:29.685Z,14.00
2019-04-29T10:08:00.746Z,12.13
2019-04-29T10:10:32.997Z,13.00
2019-04-29T10:13:04.336Z,12.37
2019-04-29T10:16:00.386Z,11.90
2019-04-29T10:18:34.500Z,14.23
2019-04-29T10:21:08.677Z,13.37
2019-04-29T10:23:39.985Z,11.67
2019-04-29T10:26:10.986Z,12.80
2019-04-29T10:29:01.558Z,14.57
2019-04-29T10:31:32.622Z,11.57
2019-04-29T10:34:03.627Z,13.07
2019-04-29T10:36:34.777Z,10.80
2019-04-29T10:39:42.475Z,9.20
2019-04-29T10:42:15.646Z,10.37
2019-04-29T10:45:04.645Z,11.97
2019-04-29T10:47:43.135Z,9.90
2019-04-29T10:50:18.975Z,11.33
2019-04-29T10:52:50.480Z,9.53
2019-04-29T10:55:25.501Z,9.23
2019-04-29T10:57:55.235Z,9.00
2019-04-29T11:00:57.409Z,10.40
2019-04-29T11:03:28.985Z,8.43
2019-04-29T11:06:01.825Z,7.23
2019-04-29T11:08:51.820Z,7.33
2019-04-29T11:11:27.075Z,6.67
2019-04-29T11:13:57.591Z,5.47
2019-04-29T11:16:45.327Z,6.40
2019-04-29T11:19:05.300Z,5.87
2019-04-29T11:21:38.873Z,7.30
2019-04-29T11:24:27.139Z,7.27
2019-04-29T11:27:18.304Z,8.23
2019-04-29T11:29:49.303Z,6.50
2019-04-29T11:32:29.182Z,6.43
2019-04-29T11:35:24.507Z,5.97
2019-04-29T11:37:59.654Z,10.03
2019-04-29T11:40:42.589Z,8.00
2019-04-29T11:43:01.602Z,7.00
2019-04-29T11:45:38.541Z,7.07
2019-04-29T11:48:07.140Z,6.63
2019-04-29T11:57:40.620Z,5.53
2019-04-29T12:00:26.224Z,6.77
2019-04-29T12:03:00.673Z,5.13
2019-04-29T12:05:45.029Z,6.27
2019-04-29T12:08:17.044Z,6.17
2019-04-29T12:11:05.333Z,6.27
2019-04-29T12:13:28.346Z,5.30
2019-04-29T12:16:08.328Z,5.57
2019-04-29T12:18:44.231Z,5.60
2019-04-29T12:21:25.457Z,5.83
2019-04-29T12:23:57.826Z,5.47
2019-04-29T12:26:28.909Z,6.80
2019-04-29T12:28:59.989Z,5.73
2019-04-29T12:31:41.062Z,5.13
2019-04-29T12:34:26.744Z,6.13
2019-04-29T12:36:57.555Z,6.93
2019-04-29T12:39:47.174Z,5.70
2019-04-29T12:42:40.229Z,8.37
2019-04-29T12:45:29.293Z,5.70
2019-04-29T12:48:00.390Z,4.90
2019-04-29T12:50:31.869Z,5.77
2019-04-29T12:53:03.305Z,5.07
2019-04-29T12:55:45.026Z,5.27
2019-04-29T12:58:12.216Z,3.93
2019-04-29T13:00:48.126Z,5.00
2019-04-29T13:03:41.104Z,6.13
2019-04-29T13:06:24.151Z,4.97
2019-04-29T13:08:55.969Z,5.30
2019-04-29T13:11:36.094Z,6.13
2019-04-29T13:14:01.780Z,9.77
2019-04-29T13:16:43.394Z,6.97
2019-04-29T13:19:20.329Z,6.17
2019-04-29T13:21:50.940Z,5.63
2019-04-29T13:24:24.484Z,7.07
2019-04-29T13:26:54.919Z,6.20
2019-04-29T13:29:27.646Z,7.20
2019-04-29T13:32:01.668Z,5.23
2019-04-29T13:34:35.755Z,6.07
2019-04-29T13:37:08.251Z,6.50
2019-04-29T13:39:40.788Z,7.87
2019-04-29T13:42:15.622Z,6.67
2019-04-29T13:45:05.353Z,5.77
2019-04-29T13:47:54.371Z,6.00
2019-04-29T13:50:47.344Z,6.33
2019-04-29T13:53:19.816Z,6.87
2019-04-29T13:56:10.043Z,6.33
2019-04-29T13:58:27.186Z,8.80
2019-04-29T14:01:22.064Z,7.00
2019-04-29T14:03:50.773Z,6.70
2019-04-29T14:06:22.236Z,8.27
2019-04-29T14:08:54.233Z,9.10
2019-04-29T14:11:26.044Z,8.17
2019-04-29T14:13:58.062Z,8.40
2019-04-29T14:16:29.135Z,8.07
2019-04-29T14:19:00.205Z,9.20
2019-04-29T14:21:31.910Z,8.37
2019-04-29T14:24:03.813Z,7.67
2019-04-29T14:26:36.953Z,7.83
2019-04-29T14:29:07.699Z,8.30
2019-04-29T14:31:40.101Z,8.00
2019-04-29T14:34:20.412Z,8.47
2019-04-29T14:36:51.409Z,8.00
2019-04-29T14:39:36.536Z,7.23
2019-04-29T14:41:59.500Z,9.13
2019-04-29T14:44:49.523Z,8.20
2019-04-29T14:47:45.027Z,8.50
2019-04-29T14:50:20.519Z,8.37
2019-04-29T14:52:50.662Z,9.00
2019-04-29T14:55:25.214Z,8.20
2019-04-29T14:57:54.477Z,8.30
2019-04-29T15:00:37.725Z,8.10
2019-04-29T15:03:08.799Z,7.83
2019-04-29T15:05:40.390Z,7.73
2019-04-29T15:08:11.488Z,8.90
2019-04-29T15:10:43.985Z,8.97
2019-04-29T15:13:20.994Z,12.47
2019-04-29T15:16:09.534Z,8.60
2019-04-29T15:19:02.422Z,9.03
2019-04-29T15:21:45.048Z,9.50
2019-04-29T15:24:17.508Z,8.27
2019-04-29T15:26:48.141Z,8.63
2019-04-29T15:29:19.234Z,18.50
2019-04-29T15:31:50.347Z,9.43
2019-04-29T15:34:21.689Z,9.77
2019-04-29T15:36:53.141Z,8.70
2019-04-29T15:39:25.446Z,8.20
2019-04-29T15:41:57.346Z,9.40
2019-04-29T15:44:28.491Z,9.90
2019-04-29T15:46:59.576Z,11.50
2019-04-29T15:49:30.560Z,8.80
2019-04-29T15:52:01.956Z,8.60
2019-04-29T15:54:33.112Z,8.93
2019-04-29T15:57:09.266Z,8.37
2019-04-29T15:59:48.634Z,8.00
2019-04-29T16:02:10.097Z,8.70
2019-04-29T16:04:47.422Z,8.07
2019-04-29T16:07:51.506Z,8.67
2019-04-29T16:10:38.206Z,9.43
2019-04-29T16:13:10.384Z,11.47
2019-04-29T16:15:42.805Z,11.00
2019-04-29T16:18:14.835Z,10.93
2019-04-29T16:20:46.130Z,10.57
2019-04-29T16:23:18.566Z,10.83
2019-04-29T16:25:52.430Z,12.23
2019-04-29T16:28:24.224Z,10.87
2019-04-29T16:30:54.982Z,11.30
2019-04-29T16:33:26.092Z,11.33
2019-04-29T16:35:57.566Z,10.83
2019-04-29T16:38:29.881Z,12.17
2019-04-29T16:41:19.491Z,10.57
2019-04-29T16:43:50.769Z,10.33
2019-04-29T16:48:57.907Z,11.43
2019-04-29T16:51:28.984Z,12.07
2019-04-29T16:54:00.452Z,13.33
2019-04-29T16:56:31.973Z,12.07
2019-04-29T16:59:09.349Z,12.53
2019-04-29T17:01:36.060Z,11.83
2019-04-29T17:04:07.140Z,13.40
2019-04-29T17:06:41.638Z,14.37
2019-04-29T17:09:45.149Z,11.70
2019-04-29T17:12:16.157Z,13.20
2019-04-29T17:15:02.986Z,13.73
2019-04-29T17:17:29.261Z,14.40
2019-04-29T17:19:57.701Z,15.30
2019-04-29T17:22:28.768Z,13.83
2019-04-29T17:25:00.099Z,15.30
2019-04-29T17:27:42.192Z,13.20
2019-04-29T17:30:38.263Z,13.20
2019-04-29T17:33:32.670Z,12.90
2019-04-29T17:35:15.895Z,10.00
2019-04-29T17:36:04.797Z,13.63
2019-04-29T17:38:36.283Z,14.40
2019-04-29T17:41:07.619Z,13.17
2019-04-29T17:44:18.810Z,14.65
2019-04-29T17:46:56.325Z,13.37
2019-04-29T17:49:34.048Z,12.63
2019-04-29T17:52:09.015Z,14.73
2019-04-29T17:54:42.289Z,14.70
2019-04-29T17:57:36.401Z,14.93
2019-04-29T18:00:43.977Z,16.07
2019-04-29T18:03:41.413Z,18.10
2019-04-29T18:06:28.096Z,17.77
2019-04-29T18:09:29.673Z,17.00
2019-04-29T18:12:11.539Z,19.43
2019-04-29T18:14:42.584Z,18.17
2019-04-29T18:17:24.242Z,18.97
2019-04-29T18:20:13.608Z,18.80
2019-04-29T18:23:21.704Z,18.27
2019-04-29T18:26:05.720Z,17.80
2019-04-29T18:28:37.417Z,17.23
2019-04-29T18:31:10.354Z,16.90
2019-04-29T18:33:41.376Z,16.67
2019-04-29T18:36:22.011Z,15.47
2019-04-29T18:38:47.548Z,17.33
2019-04-29T18:41:24.691Z,15.57
2019-04-29T18:43:56.391Z,14.83
2019-04-29T18:46:25.939Z,15.20
2019-04-29T18:49:02.981Z,13.07
2019-04-29T18:51:30.873Z,12.63
2019-04-29T18:54:01.975Z,12.43
2019-04-29T18:56:36.372Z,14.03
2019-04-29T18:59:06.839Z,12.37
2019-04-29T19:01:37.972Z,13.03
2019-04-29T19:04:36.059Z,12.10
2019-04-29T19:07:07.594Z,12.17
2019-04-29T19:09:39.568Z,11.57
2019-04-29T19:12:11.112Z,10.93
2019-04-29T19:14:45.325Z,11.47
2019-04-29T19:17:16.232Z,14.17
2019-04-29T19:19:48.767Z,11.00
2019-04-29T19:22:19.784Z,11.27
2019-04-29T19:24:51.361Z,11.23
2019-04-29T19:27:22.435Z,13.03
2019-04-29T19:29:55.059Z,11.53
2019-04-29T19:32:26.211Z,11.33
2019-04-29T19:34:58.393Z,11.57
2019-04-29T19:37:32.373Z,11.13
2019-04-29T19:40:02.742Z,11.57
2019-04-29T19:42:36.002Z,10.90
2019-04-29T19:45:13.151Z,10.07
2019-04-29T19:47:39.563Z,13.50
2019-04-29T19:50:17.959Z,11.93
2019-04-29T19:52:55.500Z,10.80
2019-04-29T19:55:27.853Z,9.03
2019-04-29T19:57:59.506Z,11.47
2019-04-29T20:00:32.091Z,9.70
2019-04-29T20:03:18.358Z,10.33
2019-04-29T20:05:43.612Z,9.07
2019-04-29T20:08:37.641Z,10.80
2019-04-29T20:10:51.515Z,10.50
2019-04-29T20:13:30.675Z,10.67
2019-04-29T20:16:10.871Z,10.27
2019-04-29T20:18:58.433Z,8.53
2019-04-29T20:21:28.194Z,9.23
2019-04-29T20:23:53.278Z,9.70
2019-04-29T20:26:29.674Z,9.60
2019-04-29T20:28:57.466Z,9.90
2019-04-29T20:31:28.696Z,9.33
2019-04-29T20:34:01.561Z,10.57
2019-04-29T20:36:41.749Z,8.57
2019-04-29T20:39:15.103Z,9.57
2019-04-29T20:41:44.563Z,12.07
2019-04-29T20:44:16.052Z,10.13
2019-04-29T20:47:12.723Z,8.13
2019-04-29T20:49:20.083Z,9.80
2019-04-29T20:51:55.761Z,10.83
2019-04-29T20:54:28.637Z,11.23
2019-04-29T20:57:04.954Z,9.40
2019-04-29T20:59:33.496Z,9.67
2019-04-29T21:02:12.534Z,8.87
2019-04-29T21:04:46.544Z,10.73
2019-04-29T21:07:18.430Z,13.13
2019-04-29T21:09:46.477Z,10.53
2019-04-29T21:12:36.648Z,9.73
2019-04-29T21:15:14.986Z,11.77
2019-04-29T21:17:45.222Z,9.90
2019-04-29T21:20:17.850Z,13.30
2019-04-29T21:22:52.446Z,12.20
2019-04-29T21:25:24.676Z,12.37
2019-04-29T21:27:58.171Z,11.83
2019-04-29T21:30:35.437Z,14.83
2019-04-29T21:33:00.607Z,11.97
2019-04-29T21:35:39.586Z,15.13
2019-04-29T21:38:35.985Z,11.97
2019-04-29T21:41:10.823Z,12.80
2019-04-29T21:43:46.423Z,12.87
2019-04-29T21:46:18.027Z,12.33
2019-04-29T21:48:48.351Z,11.93
2019-04-29T21:51:19.316Z,16.23
2019-04-29T21:53:50.645Z,12.73
2019-04-29T21:56:21.603Z,14.47
2019-04-29T21:58:53.050Z,18.07
2019-04-29T22:01:25.183Z,14.23
2019-04-29T22:03:57.765Z,13.90
2019-04-29T22:06:30.147Z,15.50
2019-04-29T22:09:02.638Z,13.57
2019-04-29T22:11:36.114Z,14.97
2019-04-29T22:14:09.916Z,14.50
2019-04-29T22:16:41.042Z,12.93
2019-04-29T22:19:12.058Z,16.23
2019-04-29T22:21:43.192Z,13.33
2019-04-29T22:24:14.581Z,13.27
2019-04-29T22:26:45.972Z,12.67
2019-04-29T22:29:17.383Z,14.43
2019-04-29T22:31:48.442Z,17.07
2019-04-29T22:34:20.002Z,18.10
2019-04-29T22:36:52.628Z,14.77
2019-04-29T22:39:26.802Z,13.80
2019-04-29T22:42:23.605Z,15.50
2019-04-29T22:44:57.316Z,18.03
2019-04-29T22:47:27.822Z,16.63
2019-04-29T22:50:03.153Z,15.90
2019-04-29T22:52:32.053Z,15.83
2019-04-29T22:55:03.201Z,15.10
2019-04-29T22:57:34.580Z,21.77
2019-04-29T23:00:06.896Z,14.17
2019-04-29T23:02:39.456Z,15.43
2019-04-29T23:05:10.951Z,14.27
2019-04-29T23:07:42.420Z,15.77
2019-04-29T23:10:13.368Z,16.37
2019-04-29T23:12:45.120Z,14.03
2019-04-29T23:15:22.532Z,19.47
2019-04-29T23:17:50.855Z,16.67
2019-04-29T23:20:49.939Z,17.80
2019-04-29T23:23:32.974Z,15.83
2019-04-29T23:26:03.765Z,15.83
2019-04-29T23:28:32.792Z,15.53
2019-04-29T23:31:15.642Z,18.57
2019-04-29T23:33:46.717Z,16.87
2019-04-29T23:36:17.803Z,15.57
2019-04-29T23:38:49.224Z,18.70
2019-04-29T23:41:20.174Z,18.27
2019-04-29T23:43:51.190Z,15.33
2019-04-29T23:46:22.166Z,15.13
2019-04-29T23:48:56.502Z,16.47
2019-04-29T23:51:33.756Z,14.13
2019-04-29T23:54:03.739Z,15.47
2019-04-29T23:56:38.572Z,14.53
2019-04-29T23:59:18.531Z,15.00
